Time;durP1;ratioP1;P1;durP2;ratioP2;P2;SDS_P1;SDS_P2;PMS_P1;PMS_P2;Temp;Humidity;BMP_temperature;BMP_pressure;BME280_temperature;BME280_humidity;BME280_pressure;Samples;Min_cycle;Max_cycle;Signal;HPM_P1;HPM_P2
2022/04/11 00:00:33;;;;;;;;;;;5.70;82.30;;;;;;2081655;28;19917;-94
2022/04/11 00:01:52;;;;;;;;;;;5.70;82.30;;;;;;2092149;28;19921;-95
2022/04/11 00:03:12;;;;;;;;;;;5.70;82.40;;;;;;2083344;28;19979;-93
2022/04/11 00:04:31;;;;;;;;;;;5.70;82.40;;;;;;2081736;28;19925;-95
2022/04/11 00:05:50;;;;;;;;;;;5.70;82.40;;;;;;2080524;28;19917;-95
2022/04/11 00:07:09;;;;;;;;;;;5.70;82.40;;;;;;2086152;28;20299;-94
2022/04/11 00:08:29;;;;;;;;;;;5.70;82.30;;;;;;2084613;28;19960;-95
2022/04/11 00:09:48;;;;;;;;;;;5.70;82.30;;;;;;2081427;28;19917;-94
2022/04/11 00:11:07;;;;;;;;;;;5.70;82.30;;;;;;2090067;28;19917;-94
2022/04/11 00:12:28;;;;;;;;;;;5.70;82.40;;;;;;2096230;28;19912;-94
2022/04/11 00:13:47;;;;;;;;;;;5.70;82.50;;;;;;2095370;28;19916;-94
2022/04/11 00:15:07;;;;;;;;;;;5.70;82.50;;;;;;2101612;28;19918;-94
2022/04/11 00:16:26;;;;;;;;;;;5.60;82.40;;;;;;2096541;28;19917;-95
2022/04/11 00:17:46;;;;;;;;;;;5.60;83.00;;;;;;2101024;28;19968;-93
2022/04/11 00:19:05;;;;;;;;;;;5.60;82.50;;;;;;2087608;28;20278;-94
2022/04/11 00:20:24;;;;;;;;;;;5.60;82.50;;;;;;2086323;28;20387;-94
2022/04/11 00:21:43;;;;;;;;;;;5.60;82.50;;;;;;2079845;28;19917;-96
2022/04/11 00:23:03;;;;;;;;;;;5.60;82.50;;;;;;2081501;28;19924;-95
2022/04/11 00:24:22;;;;;;;;;;;5.60;82.60;;;;;;2089030;28;19909;-95
2022/04/11 00:25:42;;;;;;;;;;;5.60;82.60;;;;;;2086423;28;20367;-96
2022/04/11 00:27:01;;;;;;;;;;;5.50;82.60;;;;;;2091426;28;20334;-94
2022/04/11 00:28:20;;;;;;;;;;;5.50;82.60;;;;;;2084414;28;19925;-94
2022/04/11 00:29:39;;;;;;;;;;;5.50;82.70;;;;;;2086926;28;20379;-95
2022/04/11 00:30:58;;;;;;;;;;;5.60;82.70;;;;;;2082991;28;19918;-95
2022/04/11 00:32:18;;;;;;;;;;;5.60;82.70;;;;;;2088045;28;19917;-94
2022/04/11 00:33:37;;;;;;;;;;;5.60;82.70;;;;;;2085984;28;19968;-94
2022/04/11 00:34:56;;;;;;;;;;;5.50;82.70;;;;;;2083713;28;19912;-94
2022/04/11 00:36:15;;;;;;;;;;;5.60;82.70;;;;;;2090435;28;19917;-94
2022/04/11 00:37:35;;;;;;;;;;;5.60;82.70;;;;;;2094920;28;19912;-95
2022/04/11 00:38:54;;;;;;;;;;;5.60;82.70;;;;;;2089224;28;19909;-96
2022/04/11 00:40:13;;;;;;;;;;;5.60;82.70;;;;;;2087166;28;19921;-94
2022/04/11 00:41:32;;;;;;;;;;;5.60;82.70;;;;;;2081399;28;19925;-95
2022/04/11 00:42:52;;;;;;;;;;;5.60;82.60;;;;;;2084243;28;19928;-94
2022/04/11 00:44:11;;;;;;;;;;;5.60;82.60;;;;;;2087358;28;19963;-94
2022/04/11 00:45:30;;;;;;;;;;;5.60;82.70;;;;;;2080397;28;19917;-95
2022/04/11 00:46:49;;;;;;;;;;;5.60;82.70;;;;;;2091755;28;19917;-94
2022/04/11 00:48:08;;;;;;;;;;;5.70;82.70;;;;;;2087708;28;20325;-93
2022/04/11 00:49:27;;;;;;;;;;;5.60;82.70;;;;;;2084827;28;19917;-95
2022/04/11 00:50:47;;;;;;;;;;;5.60;82.60;;;;;;2085639;28;19917;-93
2022/04/11 00:52:06;;;;;;;;;;;5.70;82.70;;;;;;2080284;28;19916;-94
2022/04/11 00:53:26;;;;;;;;;;;5.60;82.70;;;;;;2096583;28;19912;-93
2022/04/11 00:54:46;;;;;;;;;;;5.70;82.70;;;;;;2092649;28;19916;-94
2022/04/11 00:56:07;;;;;;;;;;;5.70;82.70;;;;;;2093012;28;19956;-94
2022/04/11 00:57:26;;;;;;;;;;;5.60;82.70;;;;;;2093491;28;19913;-94
2022/04/11 00:58:46;;;;;;;;;;;5.60;82.70;;;;;;2096585;28;19912;-93
2022/04/11 01:00:07;;;;;;;;;;;5.60;82.70;;;;;;2084372;28;19917;-93
2022/04/11 01:01:26;;;;;;;;;;;5.60;82.70;;;;;;2089523;28;20003;-94
2022/04/11 01:02:46;;;;;;;;;;;5.60;82.80;;;;;;2084595;28;19928;-95
2022/04/11 01:04:05;;;;;;;;;;;5.60;82.80;;;;;;2092085;28;19913;-93
2022/04/11 01:05:24;;;;;;;;;;;5.70;82.80;;;;;;2092599;28;19917;-94
2022/04/11 01:06:43;;;;;;;;;;;5.60;82.80;;;;;;2092818;28;20387;-94
2022/04/11 01:08:05;;;;;;;;;;;5.70;82.80;;;;;;2092997;28;19925;-96
2022/04/11 01:09:25;;;;;;;;;;;5.60;82.80;;;;;;2103484;28;19912;-94
2022/04/11 01:10:45;;;;;;;;;;;5.60;82.80;;;;;;2097626;28;19956;-94
2022/04/11 01:12:04;;;;;;;;;;;5.60;82.70;;;;;;2101512;28;19916;-94
2022/04/11 01:13:24;;;;;;;;;;;5.60;82.80;;;;;;2106264;28;19904;-92
2022/04/11 01:14:43;;;;;;;;;;;5.60;82.80;;;;;;2088045;28;20374;-94
2022/04/11 01:16:03;;;;;;;;;;;5.60;82.70;;;;;;2085849;28;19916;-93
2022/04/11 01:17:32;;;;;;;;;;;5.60;82.70;;;;;;2085836;28;19909;-94
2022/04/11 01:18:51;;;;;;;;;;;5.60;82.70;;;;;;2093566;28;20007;-94
2022/04/11 01:20:12;;;;;;;;;;;5.60;82.70;;;;;;2081786;28;19952;-96
2022/04/11 01:21:32;;;;;;;;;;;5.60;82.80;;;;;;2091296;28;20308;-94
2022/04/11 01:22:51;;;;;;;;;;;5.60;82.80;;;;;;2088083;28;19983;-95
2022/04/11 01:24:11;;;;;;;;;;;5.50;82.70;;;;;;2083759;28;19913;-94
2022/04/11 01:25:30;;;;;;;;;;;5.60;82.80;;;;;;2086461;28;19929;-94
2022/04/11 01:26:49;;;;;;;;;;;5.50;82.80;;;;;;2092999;28;19924;-94
2022/04/11 01:28:09;;;;;;;;;;;5.50;82.80;;;;;;2093992;28;19912;-94
2022/04/11 01:29:28;;;;;;;;;;;5.50;82.80;;;;;;2088028;28;19921;-95
2022/04/11 01:30:50;;;;;;;;;;;5.50;82.80;;;;;;2096361;28;20309;-93
2022/04/11 01:32:09;;;;;;;;;;;5.50;82.80;;;;;;2103635;28;19912;-95
2022/04/11 01:33:29;;;;;;;;;;;5.50;82.80;;;;;;2092676;28;19900;-95
2022/04/11 01:34:48;;;;;;;;;;;5.50;82.90;;;;;;2094987;28;19912;-94
2022/04/11 01:36:07;;;;;;;;;;;5.50;82.90;;;;;;2095105;28;19913;-93
2022/04/11 01:37:27;;;;;;;;;;;5.50;82.90;;;;;;2103531;28;19901;-95
2022/04/11 01:38:46;;;;;;;;;;;5.50;82.90;;;;;;2097524;28;19916;-94
2022/04/11 01:40:06;;;;;;;;;;;5.50;82.90;;;;;;2096732;28;19913;-95
2022/04/11 01:41:26;;;;;;;;;;;5.50;82.90;;;;;;2092688;28;20287;-94
2022/04/11 01:42:45;;;;;;;;;;;5.50;82.90;;;;;;2096981;28;19921;-94
2022/04/11 01:44:04;;;;;;;;;;;5.50;82.90;;;;;;2105598;28;19912;-92
2022/04/11 01:45:24;;;;;;;;;;;5.50;82.90;;;;;;2106458;28;19976;-90
2022/04/11 01:46:46;;;;;;;;;;;5.50;82.90;;;;;;2095184;28;19909;-94
2022/04/11 01:48:05;;;;;;;;;;;5.50;82.90;;;;;;2089412;28;20367;-94
2022/04/11 01:49:24;;;;;;;;;;;5.60;82.90;;;;;;2084412;28;19921;-94
2022/04/11 01:50:43;;;;;;;;;;;5.50;82.90;;;;;;2091316;28;19916;-95
2022/04/11 01:52:02;;;;;;;;;;;5.50;82.90;;;;;;2100090;28;19909;-95
2022/04/11 01:53:21;;;;;;;;;;;5.50;82.90;;;;;;2085300;28;19929;-94
2022/04/11 01:54:41;;;;;;;;;;;5.50;83.00;;;;;;2096793;28;19916;-94
2022/04/11 01:56:00;;;;;;;;;;;5.50;83.00;;;;;;2094195;28;19917;-95
2022/04/11 01:57:19;;;;;;;;;;;5.50;83.00;;;;;;2089245;28;19913;-94
2022/04/11 01:58:38;;;;;;;;;;;5.50;83.10;;;;;;2085048;28;19917;-93
2022/04/11 01:59:58;;;;;;;;;;;5.50;83.20;;;;;;2085548;28;20015;-93
2022/04/11 02:01:17;;;;;;;;;;;5.50;83.20;;;;;;2085797;28;20395;-95
2022/04/11 02:02:37;;;;;;;;;;;5.50;83.20;;;;;;2100289;28;19916;-95
2022/04/11 02:03:56;;;;;;;;;;;5.40;83.20;;;;;;2090156;28;19960;-93
2022/04/11 02:05:15;;;;;;;;;;;5.50;83.30;;;;;;2095123;28;20405;-96
2022/04/11 02:06:34;;;;;;;;;;;5.50;83.30;;;;;;2089907;28;19916;-94
2022/04/11 02:07:54;;;;;;;;;;;5.40;83.20;;;;;;2084142;28;19925;-95
2022/04/11 02:09:13;;;;;;;;;;;5.40;83.30;;;;;;2092021;28;19917;-93
2022/04/11 02:10:35;;;;;;;;;;;5.40;83.30;;;;;;2096941;28;19917;-94
2022/04/11 02:11:54;;;;;;;;;;;5.40;83.30;;;;;;2098486;28;20445;-93
2022/04/11 02:13:13;;;;;;;;;;;5.40;83.40;;;;;;2095122;28;19917;-94
2022/04/11 02:14:32;;;;;;;;;;;5.40;83.40;;;;;;2096251;28;19920;-95
2022/04/11 02:15:51;;;;;;;;;;;5.40;83.40;;;;;;2088567;28;20274;-94
2022/04/11 02:17:11;;;;;;;;;;;5.40;83.40;;;;;;2087901;28;19944;-93
2022/04/11 02:18:30;;;;;;;;;;;5.40;83.40;;;;;;2083337;28;19920;-95
2022/04/11 02:19:49;;;;;;;;;;;5.40;83.40;;;;;;2091014;28;19913;-93
2022/04/11 02:21:09;;;;;;;;;;;5.40;83.40;;;;;;2091038;28;19960;-94
2022/04/11 02:22:29;;;;;;;;;;;5.40;83.40;;;;;;2100005;28;19917;-96
2022/04/11 02:23:49;;;;;;;;;;;5.40;83.40;;;;;;2088040;28;20007;-94
2022/04/11 02:25:08;;;;;;;;;;;5.40;83.40;;;;;;2085252;28;19917;-95
2022/04/11 02:26:27;;;;;;;;;;;5.40;83.40;;;;;;2084997;28;19929;-95
2022/04/11 02:27:47;;;;;;;;;;;5.40;83.40;;;;;;2086034;28;19916;-94
2022/04/11 02:29:06;;;;;;;;;;;5.40;83.40;;;;;;2098060;28;19991;-95
2022/04/11 02:30:26;;;;;;;;;;;5.40;83.50;;;;;;2089485;28;19939;-95
2022/04/11 02:31:45;;;;;;;;;;;5.30;83.50;;;;;;2082190;28;19917;-93
2022/04/11 02:33:04;;;;;;;;;;;5.40;83.50;;;;;;2084303;28;19925;-94
2022/04/11 02:34:25;;;;;;;;;;;5.40;83.50;;;;;;2088284;28;20303;-94
2022/04/11 02:35:44;;;;;;;;;;;5.40;83.50;;;;;;2091635;28;20351;-95
2022/04/11 02:37:04;;;;;;;;;;;5.40;83.40;;;;;;2087330;28;19917;-95
2022/04/11 02:38:23;;;;;;;;;;;5.40;83.40;;;;;;2084984;28;19917;-94
2022/04/11 02:39:42;;;;;;;;;;;5.40;83.40;;;;;;2084020;28;20358;-94
2022/04/11 02:41:01;;;;;;;;;;;5.40;83.40;;;;;;2076960;28;19917;-95
2022/04/11 02:42:24;;;;;;;;;;;5.40;83.40;;;;;;2088626;28;19920;-94
2022/04/11 02:43:44;;;;;;;;;;;5.40;83.40;;;;;;2094663;28;19916;-95
2022/04/11 02:45:03;;;;;;;;;;;5.30;83.40;;;;;;2083637;28;19917;-94
2022/04/11 02:46:22;;;;;;;;;;;5.30;83.50;;;;;;2079656;28;19996;-94
2022/04/11 02:47:42;;;;;;;;;;;5.30;83.50;;;;;;2076982;28;19917;-95
2022/04/11 02:49:01;;;;;;;;;;;5.30;83.50;;;;;;2094943;28;19931;-94
2022/04/11 02:50:21;;;;;;;;;;;5.30;83.50;;;;;;2095168;28;19920;-94
2022/04/11 02:51:40;;;;;;;;;;;5.30;83.60;;;;;;2093428;28;19921;-95
2022/04/11 02:52:59;;;;;;;;;;;5.30;83.60;;;;;;2084388;28;19928;-94
2022/04/11 02:54:18;;;;;;;;;;;5.30;83.60;;;;;;2090433;28;20334;-96
2022/04/11 02:55:38;;;;;;;;;;;5.30;83.60;;;;;;2081366;28;19917;-94
2022/04/11 02:56:57;;;;;;;;;;;5.20;83.60;;;;;;2089441;28;19916;-95
2022/04/11 02:58:16;;;;;;;;;;;5.30;83.70;;;;;;2092245;28;20359;-94
2022/04/11 02:59:35;;;;;;;;;;;5.20;83.60;;;;;;2090583;28;19964;-94
2022/04/11 03:00:54;;;;;;;;;;;5.20;83.70;;;;;;2080789;28;19916;-94
2022/04/11 03:02:14;;;;;;;;;;;5.20;83.70;;;;;;2092306;28;19913;-94
2022/04/11 03:03:33;;;;;;;;;;;5.20;84.30;;;;;;2094647;28;19917;-94
2022/04/11 03:04:52;;;;;;;;;;;5.20;83.70;;;;;;2085109;28;19921;-93
2022/04/11 03:06:11;;;;;;;;;;;5.20;83.70;;;;;;2084558;28;19924;-93
2022/04/11 03:07:31;;;;;;;;;;;5.20;83.60;;;;;;2091419;28;19917;-94
2022/04/11 03:08:50;;;;;;;;;;;5.20;83.60;;;;;;2096659;28;19908;-94
2022/04/11 03:10:09;;;;;;;;;;;5.20;83.70;;;;;;2084778;28;20287;-94
2022/04/11 03:11:28;;;;;;;;;;;5.20;83.60;;;;;;2077861;28;19917;-95
2022/04/11 03:12:48;;;;;;;;;;;5.20;83.70;;;;;;2089240;28;19916;-94
2022/04/11 03:14:07;;;;;;;;;;;5.20;83.70;;;;;;2100440;28;19916;-94
2022/04/11 03:15:26;;;;;;;;;;;5.20;83.70;;;;;;2090338;28;19906;-93
2022/04/11 03:16:45;;;;;;;;;;;5.20;83.70;;;;;;2096383;28;19971;-93
2022/04/11 03:18:05;;;;;;;;;;;5.20;83.80;;;;;;2096821;28;19968;-94
2022/04/11 03:19:25;;;;;;;;;;;5.10;83.70;;;;;;2090048;28;20364;-95
2022/04/11 03:20:47;;;;;;;;;;;5.10;83.80;;;;;;2098157;28;19917;-96
2022/04/11 03:22:06;;;;;;;;;;;5.10;83.80;;;;;;2088170;28;19925;-94
2022/04/11 03:23:26;;;;;;;;;;;5.10;83.90;;;;;;2104747;28;19908;-86
2022/04/11 03:24:45;;;;;;;;;;;5.10;83.90;;;;;;2097598;28;19917;-92
2022/04/11 03:26:05;;;;;;;;;;;5.10;83.90;;;;;;2088583;28;20012;-94
2022/04/11 03:27:24;;;;;;;;;;;5.10;83.90;;;;;;2096372;28;19921;-87
2022/04/11 03:28:43;;;;;;;;;;;5.10;83.90;;;;;;2105958;28;19931;-93
2022/04/11 03:30:03;;;;;;;;;;;5.10;84.00;;;;;;2094333;28;20307;-96
2022/04/11 03:31:22;;;;;;;;;;;5.10;83.90;;;;;;2092496;28;19921;-93
2022/04/11 03:32:41;;;;;;;;;;;5.00;83.90;;;;;;2093097;28;19913;-95
2022/04/11 03:34:00;;;;;;;;;;;5.00;83.90;;;;;;2090739;28;19921;-94
2022/04/11 03:35:20;;;;;;;;;;;5.00;84.00;;;;;;2099700;28;19929;-94
2022/04/11 03:36:39;;;;;;;;;;;5.00;84.00;;;;;;2105967;28;19952;-93
2022/04/11 03:37:58;;;;;;;;;;;5.00;84.00;;;;;;2100473;28;19916;-94
2022/04/11 03:39:18;;;;;;;;;;;5.00;84.00;;;;;;2087874;28;20295;-94
2022/04/11 03:40:37;;;;;;;;;;;5.00;84.10;;;;;;2085344;28;19960;-95
2022/04/11 03:41:57;;;;;;;;;;;5.00;84.10;;;;;;2086634;28;19916;-93
2022/04/11 03:43:16;;;;;;;;;;;5.00;84.10;;;;;;2091581;28;20286;-94
2022/04/11 03:44:35;;;;;;;;;;;5.00;84.10;;;;;;2110748;28;19900;-94
2022/04/11 03:45:54;;;;;;;;;;;5.00;84.00;;;;;;2094815;28;19917;-93
2022/04/11 03:47:14;;;;;;;;;;;5.00;84.00;;;;;;2093518;28;19948;-95
2022/04/11 03:48:33;;;;;;;;;;;5.00;84.00;;;;;;2100915;28;19917;-93
2022/04/11 03:49:52;;;;;;;;;;;4.90;84.00;;;;;;2078890;28;19921;-94
2022/04/11 03:51:11;;;;;;;;;;;4.90;84.00;;;;;;2081473;28;20187;-93
2022/04/11 03:52:30;;;;;;;;;;;5.00;84.10;;;;;;2082919;28;19992;-94
2022/04/11 03:53:50;;;;;;;;;;;4.90;84.10;;;;;;2076997;28;20311;-94
2022/04/11 03:55:09;;;;;;;;;;;4.90;84.10;;;;;;2077984;28;19917;-94
2022/04/11 03:56:28;;;;;;;;;;;4.90;84.10;;;;;;2083723;28;19956;-94
2022/04/11 03:57:48;;;;;;;;;;;4.90;84.10;;;;;;2083882;28;19916;-94
2022/04/11 03:59:07;;;;;;;;;;;4.90;84.20;;;;;;2085247;28;20391;-95
2022/04/11 04:00:26;;;;;;;;;;;4.80;84.20;;;;;;2089478;28;19913;-94
2022/04/11 04:01:46;;;;;;;;;;;4.80;84.20;;;;;;2093191;28;19980;-94
2022/04/11 04:03:08;;;;;;;;;;;4.80;84.20;;;;;;2080850;28;20361;-96
2022/04/11 04:04:27;;;;;;;;;;;4.80;84.20;;;;;;2089323;28;19922;-93
2022/04/11 04:05:47;;;;;;;;;;;4.80;84.20;;;;;;2089775;28;19916;-94
2022/04/11 04:07:06;;;;;;;;;;;4.80;84.30;;;;;;2091370;28;19913;-94
2022/04/11 04:08:26;;;;;;;;;;;4.80;84.30;;;;;;2097167;28;19917;-95
2022/04/11 04:09:45;;;;;;;;;;;4.80;84.30;;;;;;2093016;28;19916;-94
2022/04/11 04:11:04;;;;;;;;;;;4.80;84.30;;;;;;2088545;28;19917;-94
2022/04/11 04:12:24;;;;;;;;;;;4.80;84.30;;;;;;2091347;28;20351;-93
2022/04/11 04:13:43;;;;;;;;;;;4.80;84.30;;;;;;2100436;28;19917;-94
2022/04/11 04:15:02;;;;;;;;;;;4.80;84.40;;;;;;2098179;28;20403;-94
2022/04/11 04:16:21;;;;;;;;;;;4.80;84.40;;;;;;2095301;28;19928;-94
2022/04/11 04:17:41;;;;;;;;;;;4.80;84.40;;;;;;2087276;28;19916;-94
2022/04/11 04:19:00;;;;;;;;;;;4.70;84.30;;;;;;2086906;28;19920;-94
2022/04/11 04:20:20;;;;;;;;;;;4.80;84.40;;;;;;2094162;28;19917;-94
2022/04/11 04:21:39;;;;;;;;;;;4.80;84.40;;;;;;2104399;28;19913;-94
2022/04/11 04:22:58;;;;;;;;;;;4.70;84.30;;;;;;2092848;28;19933;-93
2022/04/11 04:24:22;;;;;;;;;;;4.80;84.50;;;;;;2085898;28;19920;-94
2022/04/11 04:25:41;;;;;;;;;;;4.80;84.40;;;;;;2086224;28;20379;-91
2022/04/11 04:27:04;;;;;;;;;;;4.80;84.40;;;;;;2094943;28;19916;-93
2022/04/11 04:28:23;;;;;;;;;;;4.80;84.40;;;;;;2094361;28;19916;-95
2022/04/11 04:29:42;;;;;;;;;;;4.80;84.40;;;;;;2091087;28;19917;-95
2022/04/11 04:31:01;;;;;;;;;;;4.80;84.50;;;;;;2092731;28;19921;-94
2022/04/11 04:32:22;;;;;;;;;;;4.80;84.40;;;;;;2098093;28;19917;-94
2022/04/11 04:33:41;;;;;;;;;;;4.80;84.40;;;;;;2094909;28;20104;-93
2022/04/11 04:35:01;;;;;;;;;;;4.80;85.00;;;;;;2093872;28;19916;-93
2022/04/11 04:36:20;;;;;;;;;;;4.80;84.40;;;;;;2088973;28;19921;-96
2022/04/11 04:37:40;;;;;;;;;;;4.80;85.00;;;;;;2079736;28;19917;-93
2022/04/11 04:39:00;;;;;;;;;;;4.90;84.40;;;;;;2089197;28;20367;-92
2022/04/11 04:40:19;;;;;;;;;;;4.80;84.30;;;;;;2091828;28;19917;-92
2022/04/11 04:41:39;;;;;;;;;;;4.80;84.30;;;;;;2096261;28;19916;-96
2022/04/11 04:42:58;;;;;;;;;;;4.80;84.30;;;;;;2092975;28;19924;-96
2022/04/11 04:44:17;;;;;;;;;;;4.80;84.30;;;;;;2099681;28;19917;-93
2022/04/11 04:45:36;;;;;;;;;;;4.80;84.30;;;;;;2081898;28;19921;-95
2022/04/11 04:46:55;;;;;;;;;;;4.90;84.30;;;;;;2088536;28;20363;-92
2022/04/11 04:48:15;;;;;;;;;;;4.80;84.30;;;;;;2090377;28;19913;-93
2022/04/11 04:49:34;;;;;;;;;;;4.80;84.30;;;;;;2092803;28;20502;-94
2022/04/11 04:50:54;;;;;;;;;;;4.80;84.20;;;;;;2098522;28;19916;-93
2022/04/11 04:52:13;;;;;;;;;;;4.80;84.20;;;;;;2094755;28;19916;-96
2022/04/11 04:53:32;;;;;;;;;;;4.90;84.30;;;;;;2089838;28;19916;-94
2022/04/11 04:54:52;;;;;;;;;;;4.80;84.20;;;;;;2086580;28;19917;-94
2022/04/11 04:56:11;;;;;;;;;;;4.80;84.20;;;;;;2089751;28;19920;-94
2022/04/11 04:57:30;;;;;;;;;;;4.80;84.30;;;;;;2088563;28;19913;-94
2022/04/11 04:58:51;;;;;;;;;;;4.80;84.30;;;;;;2087245;28;19917;-94
2022/04/11 05:00:11;;;;;;;;;;;4.80;84.30;;;;;;2080920;28;20003;-92
2022/04/11 05:01:30;;;;;;;;;;;4.80;84.30;;;;;;2089034;28;20011;-95
2022/04/11 05:02:50;;;;;;;;;;;4.80;84.40;;;;;;2090763;28;19960;-90
2022/04/11 05:04:09;;;;;;;;;;;4.80;84.50;;;;;;2090650;28;19913;-93
2022/04/11 05:05:28;;;;;;;;;;;4.80;84.50;;;;;;2092426;28;20402;-93
2022/04/11 05:06:47;;;;;;;;;;;4.80;84.50;;;;;;2086247;28;19913;-94
2022/04/11 05:08:08;;;;;;;;;;;4.80;84.40;;;;;;2092057;28;19908;-94
2022/04/11 05:09:27;;;;;;;;;;;4.80;84.40;;;;;;2081705;28;19917;-92
2022/04/11 05:10:46;;;;;;;;;;;4.80;84.40;;;;;;2083917;28;19917;-93
2022/04/11 05:12:06;;;;;;;;;;;4.80;84.30;;;;;;2087326;28;19913;-94
2022/04/11 05:13:25;;;;;;;;;;;4.80;84.30;;;;;;2094290;28;19928;-94
2022/04/11 05:14:44;;;;;;;;;;;4.80;84.30;;;;;;2100380;28;19913;-93
2022/04/11 05:16:03;;;;;;;;;;;4.80;84.30;;;;;;2096715;28;19901;-86
2022/04/11 05:17:23;;;;;;;;;;;4.90;84.30;;;;;;2097446;28;19901;-82
2022/04/11 05:18:42;;;;;;;;;;;4.90;84.30;;;;;;2087818;28;19916;-95
2022/04/11 05:20:03;;;;;;;;;;;4.90;84.30;;;;;;2082916;28;19921;-89
2022/04/11 05:21:23;;;;;;;;;;;4.90;84.30;;;;;;2099242;28;19916;-91
2022/04/11 05:22:42;;;;;;;;;;;4.90;84.20;;;;;;2092960;28;19925;-96
2022/04/11 05:24:01;;;;;;;;;;;4.90;84.20;;;;;;2090602;28;19917;-93
2022/04/11 05:25:21;;;;;;;;;;;4.90;84.10;;;;;;2098802;28;19909;-93
2022/04/11 05:26:40;;;;;;;;;;;4.90;84.10;;;;;;2083091;28;20007;-95
2022/04/11 05:27:59;;;;;;;;;;;5.00;84.10;;;;;;2088431;28;19917;-91
2022/04/11 05:29:18;;;;;;;;;;;5.00;84.10;;;;;;2100235;28;19905;-84
2022/04/11 05:30:37;;;;;;;;;;;5.00;84.10;;;;;;2100474;28;19956;-94
2022/04/11 05:31:56;;;;;;;;;;;5.00;84.00;;;;;;2089816;28;19917;-95
2022/04/11 05:33:16;;;;;;;;;;;5.00;83.90;;;;;;2088126;28;20399;-94
2022/04/11 05:34:36;;;;;;;;;;;5.00;83.90;;;;;;2095982;28;19912;-94
2022/04/11 05:35:56;;;;;;;;;;;5.00;83.90;;;;;;2092946;28;19925;-95
2022/04/11 05:37:15;;;;;;;;;;;5.10;83.90;;;;;;2087636;28;19913;-95
2022/04/11 05:38:35;;;;;;;;;;;5.10;83.90;;;;;;2086341;28;20371;-94
2022/04/11 05:39:54;;;;;;;;;;;5.10;83.80;;;;;;2087919;28;19913;-95
2022/04/11 05:41:14;;;;;;;;;;;5.10;83.80;;;;;;2082208;28;19917;-95
2022/04/11 05:42:34;;;;;;;;;;;5.10;83.80;;;;;;2090839;28;19944;-96
2022/04/11 05:43:54;;;;;;;;;;;5.10;83.70;;;;;;2092711;28;19917;-95
2022/04/11 05:45:13;;;;;;;;;;;5.20;83.80;;;;;;2099216;28;19936;-96
2022/04/11 05:46:32;;;;;;;;;;;5.20;83.70;;;;;;2094788;28;19913;-94
2022/04/11 05:47:51;;;;;;;;;;;5.20;83.70;;;;;;2100514;28;19924;-94
2022/04/11 05:49:11;;;;;;;;;;;5.10;83.60;;;;;;2112007;28;20358;-95
2022/04/11 05:50:30;;;;;;;;;;;5.20;83.60;;;;;;2102063;28;19913;-95
2022/04/11 05:51:50;;;;;;;;;;;5.20;83.60;;;;;;2099657;28;19912;-95
2022/04/11 05:53:09;;;;;;;;;;;5.20;83.50;;;;;;2101869;28;19917;-96
2022/04/11 05:54:28;;;;;;;;;;;5.20;83.50;;;;;;2103423;28;20393;-96
2022/04/11 05:55:47;;;;;;;;;;;5.30;83.50;;;;;;2093622;28;20378;-96
2022/04/11 05:57:07;;;;;;;;;;;5.30;83.50;;;;;;2086556;28;19913;-95
2022/04/11 05:58:26;;;;;;;;;;;5.30;83.40;;;;;;2096462;28;19917;-95
2022/04/11 05:59:45;;;;;;;;;;;5.30;83.40;;;;;;2098047;28;20269;-94
2022/04/11 06:01:04;;;;;;;;;;;5.30;83.40;;;;;;2089906;28;19912;-95
2022/04/11 06:02:23;;;;;;;;;;;5.30;83.40;;;;;;2089323;28;19913;-96
2022/04/11 06:03:43;;;;;;;;;;;5.30;83.40;;;;;;2088474;28;19921;-95
2022/04/11 06:05:02;;;;;;;;;;;5.30;83.40;;;;;;2079590;28;19943;-94
2022/04/11 06:06:21;;;;;;;;;;;5.30;83.40;;;;;;2090108;28;20379;-95
2022/04/11 06:07:41;;;;;;;;;;;5.30;83.40;;;;;;2091506;28;20278;-94
2022/04/11 06:09:00;;;;;;;;;;;5.30;83.40;;;;;;2098684;28;19944;-94
2022/04/11 06:10:19;;;;;;;;;;;5.40;83.40;;;;;;2101593;28;19912;-94
2022/04/11 06:11:38;;;;;;;;;;;5.40;83.40;;;;;;2096265;28;19909;-94
2022/04/11 06:12:58;;;;;;;;;;;5.40;83.40;;;;;;2093823;28;19917;-95
2022/04/11 06:14:17;;;;;;;;;;;5.40;83.40;;;;;;2083707;28;19921;-96
2022/04/11 06:15:37;;;;;;;;;;;5.40;83.40;;;;;;2086036;28;19917;-95
2022/04/11 06:16:56;;;;;;;;;;;5.40;83.40;;;;;;2091315;28;20000;-94
2022/04/11 06:18:15;;;;;;;;;;;5.40;83.40;;;;;;2100196;28;19956;-94
2022/04/11 06:19:34;;;;;;;;;;;5.40;83.40;;;;;;2098607;28;20282;-96
2022/04/11 06:20:54;;;;;;;;;;;5.40;83.40;;;;;;2085370;28;19920;-96
2022/04/11 06:22:13;;;;;;;;;;;5.40;83.30;;;;;;2092360;28;19956;-95
2022/04/11 06:23:32;;;;;;;;;;;5.50;83.40;;;;;;2089788;28;19933;-96
2022/04/11 06:24:58;;;;;;;;;;;5.40;83.30;;;;;;2093805;28;19909;-95
2022/04/11 06:26:17;;;;;;;;;;;5.50;83.30;;;;;;2097437;28;20762;-95
2022/04/11 06:27:37;;;;;;;;;;;5.50;83.20;;;;;;2102556;28;19983;-94
2022/04/11 06:28:56;;;;;;;;;;;5.50;83.10;;;;;;2088530;28;19912;-94
2022/04/11 06:30:16;;;;;;;;;;;5.50;83.10;;;;;;2089589;28;20342;-94
2022/04/11 06:31:35;;;;;;;;;;;5.60;83.10;;;;;;2084485;28;19913;-95
2022/04/11 06:32:54;;;;;;;;;;;5.60;83.10;;;;;;2087945;28;19916;-95
2022/04/11 06:34:13;;;;;;;;;;;5.60;83.00;;;;;;2083753;28;20367;-94
2022/04/11 06:35:32;;;;;;;;;;;5.60;82.90;;;;;;2086486;28;19920;-96
2022/04/11 06:36:52;;;;;;;;;;;5.70;83.00;;;;;;2094492;28;19921;-95
2022/04/11 06:38:11;;;;;;;;;;;5.70;82.90;;;;;;2099049;28;19996;-95
2022/04/11 06:39:30;;;;;;;;;;;5.70;82.90;;;;;;2089962;28;19952;-95
2022/04/11 06:40:50;;;;;;;;;;;5.70;82.70;;;;;;2086317;28;20347;-95
2022/04/11 06:42:09;;;;;;;;;;;5.70;82.70;;;;;;2088007;28;19925;-95
2022/04/11 06:43:28;;;;;;;;;;;5.70;82.60;;;;;;2088366;28;19925;-95
2022/04/11 06:44:47;;;;;;;;;;;5.70;82.50;;;;;;2091702;28;19916;-96
2022/04/11 06:46:07;;;;;;;;;;;5.80;82.50;;;;;;2100609;28;19920;-95
2022/04/11 06:47:26;;;;;;;;;;;5.80;82.40;;;;;;2087000;28;19917;-94
2022/04/11 06:48:45;;;;;;;;;;;5.80;82.30;;;;;;2084364;28;19953;-94
2022/04/11 06:50:04;;;;;;;;;;;5.90;82.30;;;;;;2099340;28;19912;-94
2022/04/11 06:51:23;;;;;;;;;;;5.90;82.30;;;;;;2090320;28;20307;-95
2022/04/11 06:52:43;;;;;;;;;;;6.00;82.10;;;;;;2077908;28;19917;-93
2022/04/11 06:54:02;;;;;;;;;;;6.00;82.10;;;;;;2085764;28;19913;-96
2022/04/11 06:55:21;;;;;;;;;;;6.00;81.90;;;;;;2093662;28;19917;-95
2022/04/11 06:56:41;;;;;;;;;;;6.10;82.00;;;;;;2099189;28;19908;-95
2022/04/11 06:58:00;;;;;;;;;;;6.10;81.90;;;;;;2089559;28;19917;-95
2022/04/11 06:59:19;;;;;;;;;;;6.10;81.90;;;;;;2088896;28;20363;-94
2022/04/11 07:00:38;;;;;;;;;;;6.20;81.90;;;;;;2102273;28;19912;-95
2022/04/11 07:01:58;;;;;;;;;;;6.20;81.70;;;;;;2095944;28;19913;-94
2022/04/11 07:03:17;;;;;;;;;;;6.20;81.60;;;;;;2094171;28;19968;-95
2022/04/11 07:04:36;;;;;;;;;;;6.20;81.60;;;;;;2095471;28;19916;-95
2022/04/11 07:05:56;;;;;;;;;;;6.30;81.60;;;;;;2098352;28;19913;-95
2022/04/11 07:07:15;;;;;;;;;;;6.30;81.60;;;;;;2107277;28;19916;-95
2022/04/11 07:08:34;;;;;;;;;;;6.30;81.50;;;;;;2101229;28;19913;-86
2022/04/11 07:09:53;;;;;;;;;;;6.40;81.50;;;;;;2106360;28;19905;-85
2022/04/11 07:11:13;;;;;;;;;;;6.40;81.40;;;;;;2114632;28;19900;-94
2022/04/11 07:12:36;;;;;;;;;;;6.40;81.40;;;;;;2102533;28;19917;-94
2022/04/11 07:13:55;;;;;;;;;;;6.50;81.40;;;;;;2098543;28;19920;-87
2022/04/11 07:15:14;;;;;;;;;;;6.50;81.30;;;;;;2097952;28;19901;-92
2022/04/11 07:16:33;;;;;;;;;;;6.50;81.30;;;;;;2098052;28;19943;-95
2022/04/11 07:17:53;;;;;;;;;;;6.60;81.30;;;;;;2098225;28;20382;-95
2022/04/11 07:19:12;;;;;;;;;;;6.60;81.30;;;;;;2110040;28;19916;-96
2022/04/11 07:20:31;;;;;;;;;;;6.70;81.30;;;;;;2103911;28;19954;-95
2022/04/11 07:21:50;;;;;;;;;;;6.70;81.20;;;;;;2090844;28;19914;-93
2022/04/11 07:23:10;;;;;;;;;;;6.70;81.20;;;;;;2095484;28;19909;-95
2022/04/11 07:24:29;;;;;;;;;;;6.80;81.20;;;;;;2096043;28;19905;-94
2022/04/11 07:25:48;;;;;;;;;;;6.80;81.10;;;;;;2089339;28;19921;-93
2022/04/11 07:27:08;;;;;;;;;;;6.80;81.10;;;;;;2089257;28;20457;-95
2022/04/11 07:28:27;;;;;;;;;;;6.90;81.10;;;;;;2096358;28;19916;-94
2022/04/11 07:29:46;;;;;;;;;;;6.90;81.10;;;;;;2100460;28;19912;-94
2022/04/11 07:31:06;;;;;;;;;;;6.90;81.10;;;;;;2094596;28;19917;-94
2022/04/11 07:32:25;;;;;;;;;;;6.90;81.00;;;;;;2089338;28;19913;-95
2022/04/11 07:33:44;;;;;;;;;;;7.00;81.00;;;;;;2092179;28;19913;-94
2022/04/11 07:35:04;;;;;;;;;;;7.00;81.00;;;;;;2095511;28;19901;-95
2022/04/11 07:36:22;;;;;;;;;;;7.00;80.90;;;;;;2085470;28;20425;-94
2022/04/11 07:37:42;;;;;;;;;;;7.10;81.00;;;;;;2093355;28;20453;-94
2022/04/11 07:39:01;;;;;;;;;;;7.10;80.70;;;;;;2100661;28;19913;-94
2022/04/11 07:40:20;;;;;;;;;;;7.20;80.80;;;;;;2093529;28;19917;-95
2022/04/11 07:41:39;;;;;;;;;;;7.20;80.80;;;;;;2091931;28;19912;-95
2022/04/11 07:42:59;;;;;;;;;;;7.30;80.80;;;;;;2096993;28;19920;-95
2022/04/11 07:44:18;;;;;;;;;;;7.30;80.70;;;;;;2092225;28;19913;-93
2022/04/11 07:45:37;;;;;;;;;;;7.40;80.70;;;;;;2092726;28;20635;-94
2022/04/11 07:46:56;;;;;;;;;;;7.40;80.60;;;;;;2097550;28;19921;-94
2022/04/11 07:48:16;;;;;;;;;;;7.50;80.50;;;;;;2093261;28;19909;-95
2022/04/11 07:49:35;;;;;;;;;;;7.50;80.40;;;;;;2096698;28;20352;-95